createdAt,value
2018-06-12T00:01:48.999Z,4.53
2018-06-12T00:04:19.987Z,3.93
2018-06-12T00:06:48.091Z,4.90
2018-06-12T00:09:16.252Z,4.07
2018-06-12T00:11:44.472Z,4.87
2018-06-12T00:14:12.660Z,3.77
2018-06-12T00:16:40.906Z,4.23
2018-06-12T00:19:09.154Z,4.30
2018-06-12T00:21:37.412Z,3.87
2018-06-12T00:24:05.434Z,4.20
2018-06-12T00:26:33.607Z,4.50
2018-06-12T00:29:01.801Z,4.40
2018-06-12T00:31:30.025Z,4.60
2018-06-12T00:33:58.152Z,5.20
2018-06-12T00:36:26.337Z,4.53
2018-06-12T00:38:54.444Z,4.50
2018-06-12T00:41:22.664Z,3.77
2018-06-12T00:43:50.936Z,4.47
2018-06-12T00:46:19.133Z,4.30
2018-06-12T00:48:47.272Z,5.40
2018-06-12T00:51:15.422Z,4.30
2018-06-12T00:53:43.587Z,4.10
2018-06-12T00:57:30.428Z,5.00
2018-06-12T00:59:58.641Z,3.87
2018-06-12T01:02:26.712Z,5.43
2018-06-12T01:04:54.847Z,5.03
2018-06-12T01:07:23.028Z,4.70
2018-06-12T01:09:51.117Z,4.87
2018-06-12T01:12:19.379Z,4.20
2018-06-12T01:14:47.575Z,5.13
2018-06-12T01:17:15.747Z,4.93
2018-06-12T01:19:43.878Z,5.30
2018-06-12T01:22:12.060Z,4.80
2018-06-12T01:24:40.264Z,5.17
2018-06-12T01:27:08.579Z,5.30
2018-06-12T01:29:36.757Z,5.63
2018-06-12T01:32:05.129Z,5.17
2018-06-12T01:34:33.302Z,4.23
2018-06-12T01:37:01.509Z,4.70
2018-06-12T01:39:29.647Z,4.47
2018-06-12T01:41:57.823Z,4.93
2018-06-12T01:44:25.943Z,5.00
2018-06-12T01:46:54.220Z,5.10
2018-06-12T01:49:22.360Z,5.67
2018-06-12T01:51:50.549Z,5.60
2018-06-12T01:54:18.654Z,4.17
2018-06-12T01:56:46.787Z,6.10
2018-06-12T01:59:14.991Z,5.60
2018-06-12T02:01:43.244Z,5.03
2018-06-12T02:04:11.376Z,5.20
2018-06-12T02:06:39.593Z,5.70
2018-06-12T02:09:07.706Z,6.10
2018-06-12T02:11:35.879Z,5.10
2018-06-12T02:14:04.120Z,5.13
2018-06-12T02:16:32.381Z,5.90
2018-06-12T02:19:00.551Z,5.70
2018-06-12T02:21:28.711Z,7.37
2018-06-12T02:23:57.046Z,6.87
2018-06-12T02:26:25.348Z,6.40
2018-06-12T02:28:53.443Z,5.47
2018-06-12T02:31:21.656Z,5.93
2018-06-12T02:33:49.834Z,6.50
2018-06-12T02:36:18.088Z,5.43
2018-06-12T02:38:46.218Z,5.47
2018-06-12T02:41:14.515Z,5.27
2018-06-12T02:43:42.609Z,6.40
2018-06-12T02:46:10.746Z,5.87
2018-06-12T02:48:38.845Z,5.90
2018-06-12T02:51:07.021Z,5.30
2018-06-12T02:53:35.172Z,5.67
2018-06-12T02:56:03.342Z,5.90
2018-06-12T02:58:31.497Z,6.27
2018-06-12T03:00:59.711Z,6.13
2018-06-12T03:03:27.749Z,6.57
2018-06-12T03:05:55.915Z,6.30
2018-06-12T03:08:24.044Z,6.93
2018-06-12T03:10:52.163Z,6.77
2018-06-12T03:13:20.240Z,6.27
2018-06-12T03:15:49.903Z,6.37
2018-06-12T03:18:18.019Z,6.40
2018-06-12T03:20:46.333Z,6.63
2018-06-12T03:23:14.511Z,7.30
2018-06-12T03:25:42.598Z,7.63
2018-06-12T03:28:10.755Z,8.77
2018-06-12T03:30:39.043Z,7.40
2018-06-12T03:33:07.204Z,8.03
2018-06-12T03:35:35.443Z,8.00
2018-06-12T03:38:03.595Z,7.00
2018-06-12T03:40:31.793Z,7.20
2018-06-12T03:43:00.023Z,6.60
2018-06-12T03:45:28.916Z,7.27
2018-06-12T03:47:57.063Z,6.00
2018-06-12T03:50:25.221Z,6.00
2018-06-12T03:52:53.348Z,6.10
2018-06-12T03:55:21.559Z,7.90
2018-06-12T03:57:49.671Z,6.17
2018-06-12T04:00:17.900Z,8.10
2018-06-12T04:02:46.029Z,7.30
2018-06-12T04:05:15.192Z,7.10
2018-06-12T04:07:43.372Z,7.60
2018-06-12T04:10:11.352Z,7.90
2018-06-12T04:12:39.562Z,7.13
2018-06-12T04:15:07.793Z,7.40
2018-06-12T04:17:35.943Z,6.13
2018-06-12T04:20:04.003Z,7.93
2018-06-12T04:22:32.194Z,8.20
2018-06-12T04:25:00.364Z,7.13
2018-06-12T04:27:28.484Z,8.63
2018-06-12T04:29:56.742Z,9.27
2018-06-12T04:32:24.875Z,8.47
2018-06-12T04:34:53.043Z,7.73
2018-06-12T04:37:21.228Z,8.37
2018-06-12T04:39:49.403Z,8.43
2018-06-12T04:42:17.508Z,7.63
2018-06-12T04:44:45.692Z,9.07
2018-06-12T04:47:13.776Z,8.43
2018-06-12T04:49:41.971Z,8.53
2018-06-12T04:52:10.111Z,9.50
2018-06-12T04:54:38.271Z,9.50
2018-06-12T04:57:06.387Z,10.73
2018-06-12T04:59:34.543Z,9.43
2018-06-12T05:02:02.661Z,9.60
2018-06-12T05:04:30.808Z,9.03
2018-06-12T05:07:00.695Z,9.13
2018-06-12T05:09:28.823Z,8.57
2018-06-12T05:11:56.984Z,10.03
2018-06-12T05:14:25.088Z,11.00
2018-06-12T05:16:53.306Z,9.60
2018-06-12T05:19:21.421Z,10.83
2018-06-12T05:21:49.607Z,12.87
2018-06-12T05:24:17.813Z,12.80
2018-06-12T05:26:46.068Z,10.60
2018-06-12T05:29:14.216Z,9.47
2018-06-12T05:31:42.344Z,9.77
2018-06-12T05:34:10.556Z,10.80
2018-06-12T05:36:38.790Z,10.90
2018-06-12T05:39:09.230Z,10.63
2018-06-12T05:41:38.439Z,9.70
2018-06-12T05:44:06.603Z,12.17
2018-06-12T05:46:34.739Z,10.63
2018-06-12T05:49:02.898Z,10.80
2018-06-12T05:51:31.119Z,11.00
2018-06-12T05:53:59.331Z,10.73
2018-06-12T05:56:27.527Z,11.53
2018-06-12T05:58:55.688Z,11.20
2018-06-12T06:01:23.842Z,11.97
2018-06-12T06:03:51.949Z,10.77
2018-06-12T06:06:20.065Z,9.70
2018-06-12T06:08:48.178Z,10.93
2018-06-12T06:11:16.380Z,10.90
2018-06-12T06:13:44.482Z,10.73
2018-06-12T06:16:12.752Z,11.70
2018-06-12T06:18:40.865Z,11.10
2018-06-12T06:21:09.099Z,10.70
2018-06-12T06:23:37.325Z,11.10
2018-06-12T06:26:05.480Z,10.33
2018-06-12T06:28:33.615Z,12.20
2018-06-12T06:31:01.716Z,11.50
2018-06-12T06:33:29.882Z,11.70
2018-06-12T06:35:58.097Z,9.73
2018-06-12T06:38:26.198Z,10.67
2018-06-12T06:40:54.425Z,10.03
2018-06-12T06:43:22.611Z,10.70
2018-06-12T06:45:50.775Z,8.80
2018-06-12T06:48:18.871Z,9.37
2018-06-12T06:50:47.050Z,10.50
2018-06-12T06:53:15.211Z,10.97
2018-06-12T06:55:43.356Z,10.17
2018-06-12T06:58:11.476Z,9.77
2018-06-12T07:00:39.647Z,10.00
2018-06-12T07:03:07.798Z,10.60
2018-06-12T07:05:35.919Z,9.27
2018-06-12T07:08:04.108Z,9.00
2018-06-12T07:10:32.215Z,9.40
2018-06-12T07:13:00.437Z,9.77
2018-06-12T07:15:28.567Z,9.70
2018-06-12T07:17:56.680Z,10.20
2018-06-12T07:21:32.688Z,9.80
2018-06-12T07:24:00.861Z,10.80
2018-06-12T07:26:28.962Z,9.40
2018-06-12T07:28:57.126Z,9.83
2018-06-12T07:31:25.329Z,9.40
2018-06-12T07:33:53.495Z,9.17
2018-06-12T07:36:22.177Z,8.73
2018-06-12T07:38:50.443Z,10.30
2018-06-12T07:41:18.535Z,9.33
2018-06-12T07:43:46.642Z,10.40
2018-06-12T07:46:14.811Z,9.60
2018-06-12T07:48:42.952Z,9.90
2018-06-12T07:51:11.183Z,9.90
2018-06-12T07:53:39.268Z,9.33
2018-06-12T07:56:07.453Z,9.40
2018-06-12T07:58:35.588Z,9.00
2018-06-12T08:01:03.864Z,9.30
2018-06-12T08:03:31.947Z,8.70
2018-06-12T08:06:00.107Z,8.70
2018-06-12T08:08:28.209Z,9.30
2018-06-12T08:10:56.452Z,9.53
2018-06-12T08:13:24.478Z,9.57
2018-06-12T08:15:52.648Z,8.17
2018-06-12T08:18:20.783Z,9.40
2018-06-12T08:20:48.943Z,8.57
2018-06-12T08:23:17.065Z,9.87
2018-06-12T08:25:45.146Z,8.90
2018-06-12T08:28:13.338Z,9.10
2018-06-12T08:30:41.507Z,9.07
2018-06-12T08:33:09.650Z,8.60
2018-06-12T08:35:37.846Z,8.33
2018-06-12T08:38:06.571Z,6.97
2018-06-12T08:40:34.747Z,8.30
2018-06-12T08:43:02.947Z,8.20
2018-06-12T08:45:31.065Z,8.20
2018-06-12T08:47:59.166Z,8.30
2018-06-12T08:50:27.389Z,7.90
2018-06-12T08:52:55.579Z,9.00
2018-06-12T08:55:23.663Z,9.20
2018-06-12T08:57:51.825Z,7.57
2018-06-12T09:00:19.981Z,7.93
2018-06-12T09:02:48.145Z,7.70
2018-06-12T09:05:16.339Z,8.33
2018-06-12T09:07:44.493Z,9.73
2018-06-12T09:10:12.738Z,8.10
2018-06-12T09:12:40.811Z,8.80
2018-06-12T09:15:08.981Z,7.70
2018-06-12T09:17:37.131Z,6.93
2018-06-12T09:20:05.294Z,6.80
2018-06-12T09:22:33.475Z,7.60
2018-06-12T09:25:01.694Z,7.60
2018-06-12T09:27:34.251Z,6.90
2018-06-12T09:30:02.525Z,6.63
2018-06-12T09:32:30.723Z,6.20
2018-06-12T09:34:58.865Z,5.50
2018-06-12T09:37:27.026Z,5.30
2018-06-12T09:39:55.183Z,5.23
2018-06-12T09:42:23.435Z,4.73
2018-06-12T09:44:51.543Z,5.57
2018-06-12T09:47:20.347Z,5.77
2018-06-12T09:49:48.516Z,5.27
2018-06-12T09:52:16.624Z,5.80
2018-06-12T09:54:44.754Z,7.20
2018-06-12T09:57:12.989Z,5.90
2018-06-12T09:59:41.201Z,6.17
2018-06-12T10:02:09.353Z,5.60
2018-06-12T10:04:37.551Z,6.50
2018-06-12T10:07:05.786Z,6.43
2018-06-12T10:09:34.059Z,5.40
2018-06-12T10:12:02.124Z,5.90
2018-06-12T10:14:30.169Z,5.43
2018-06-12T10:16:58.300Z,5.80
2018-06-12T10:19:26.478Z,5.27
2018-06-12T10:21:54.564Z,4.77
2018-06-12T10:24:22.667Z,5.93
2018-06-12T10:26:50.850Z,5.70
2018-06-12T10:29:19.043Z,5.40
2018-06-12T10:31:47.203Z,4.37
2018-06-12T10:34:15.425Z,4.97
2018-06-12T10:36:43.642Z,5.57
2018-06-12T10:39:11.815Z,5.10
2018-06-12T10:41:39.996Z,6.30
2018-06-12T10:44:08.104Z,4.60
2018-06-12T10:46:36.273Z,5.07
2018-06-12T10:49:04.334Z,4.63
2018-06-12T10:51:32.431Z,5.00
2018-06-12T10:54:00.604Z,4.20
2018-06-12T10:56:28.764Z,4.30
2018-06-12T10:58:56.935Z,5.50
2018-06-12T11:01:25.058Z,4.60
2018-06-12T11:03:53.210Z,4.23
2018-06-12T11:06:21.371Z,4.67
2018-06-12T11:08:49.523Z,4.40
2018-06-12T11:11:17.645Z,4.90
2018-06-12T11:13:45.687Z,5.07
2018-06-12T11:16:13.968Z,4.80
2018-06-12T11:18:42.183Z,3.87
2018-06-12T11:21:10.403Z,3.97
2018-06-12T11:23:38.536Z,4.20
2018-06-12T11:26:06.731Z,4.20
2018-06-12T11:28:34.855Z,4.50
2018-06-12T11:31:03.156Z,3.83
2018-06-12T11:33:31.387Z,4.77
2018-06-12T11:35:59.587Z,4.90
2018-06-12T11:38:27.713Z,4.77
2018-06-12T11:40:55.860Z,4.90
2018-06-12T11:43:24.002Z,5.50
2018-06-12T11:45:52.188Z,4.73
2018-06-12T11:48:20.502Z,5.23
2018-06-12T11:50:48.712Z,6.10
2018-06-12T11:53:16.913Z,6.27
2018-06-12T11:55:45.048Z,6.10
2018-06-12T11:58:13.253Z,9.73
2018-06-12T12:00:41.404Z,8.20
2018-06-12T12:03:09.670Z,7.70
2018-06-12T12:05:37.814Z,7.40
2018-06-12T12:08:05.994Z,8.80
2018-06-12T12:10:34.099Z,11.53
2018-06-12T12:13:02.343Z,7.93
2018-06-12T12:15:30.503Z,8.63
2018-06-12T12:17:58.672Z,9.20
2018-06-12T12:20:26.847Z,11.20
2018-06-12T12:22:54.974Z,9.70
2018-06-12T12:25:23.183Z,11.60
2018-06-12T12:27:51.303Z,13.60
2018-06-12T12:30:19.478Z,13.90
2018-06-12T12:32:47.563Z,12.97
2018-06-12T12:35:15.777Z,14.93
2018-06-12T12:37:44.028Z,15.97
2018-06-12T12:40:12.212Z,14.10
2018-06-12T12:42:40.278Z,16.20
2018-06-12T12:45:08.390Z,16.40
2018-06-12T12:47:36.504Z,13.67
2018-06-12T12:50:04.677Z,12.93
2018-06-12T12:52:32.916Z,12.23
2018-06-12T12:55:01.332Z,12.43
2018-06-12T12:57:29.567Z,9.93
2018-06-12T12:59:57.686Z,10.03
2018-06-12T13:02:25.804Z,10.17
2018-06-12T13:04:53.916Z,10.07
2018-06-12T13:07:22.088Z,9.90
2018-06-12T13:09:50.624Z,10.77
2018-06-12T13:12:18.679Z,11.40
2018-06-12T13:14:46.844Z,10.00
2018-06-12T13:17:15.087Z,10.70
2018-06-12T13:19:43.288Z,11.10
2018-06-12T13:22:11.435Z,12.30
2018-06-12T13:24:39.583Z,11.13
2018-06-12T13:27:07.771Z,11.73
2018-06-12T13:29:35.845Z,10.50
2018-06-12T13:32:04.029Z,10.83
2018-06-12T13:34:32.184Z,14.13
2018-06-12T13:37:00.418Z,10.37
2018-06-12T13:39:28.624Z,11.33
2018-06-12T13:41:56.753Z,12.10
2018-06-12T13:44:24.956Z,12.03
2018-06-12T13:46:53.080Z,14.20
2018-06-12T13:49:21.254Z,11.77
2018-06-12T13:51:49.516Z,12.20
2018-06-12T13:54:17.739Z,12.57
2018-06-12T13:56:45.826Z,13.80
2018-06-12T13:59:14.052Z,11.20
2018-06-12T14:01:42.261Z,12.50
2018-06-12T14:04:10.363Z,13.50
2018-06-12T14:06:38.575Z,12.47
2018-06-12T14:09:07.979Z,12.50
2018-06-12T14:11:36.181Z,11.73
2018-06-12T14:14:04.463Z,13.90
2018-06-12T14:16:32.691Z,11.83
2018-06-12T14:19:01.515Z,12.80
2018-06-12T14:21:29.851Z,14.17
2018-06-12T14:23:58.100Z,14.47
2018-06-12T14:26:26.251Z,14.60
2018-06-12T14:28:54.432Z,14.10
2018-06-12T14:31:22.584Z,14.23
2018-06-12T14:33:50.748Z,11.80
2018-06-12T14:36:19.032Z,14.00
2018-06-12T14:38:47.275Z,13.40
2018-06-12T14:41:15.445Z,15.97
2018-06-12T14:43:43.612Z,11.77
2018-06-12T14:46:11.826Z,13.53
2018-06-12T14:48:39.987Z,12.50
2018-06-12T14:51:08.132Z,12.37
2018-06-12T14:53:36.317Z,13.33
2018-06-12T14:56:04.469Z,12.90
2018-06-12T14:58:32.634Z,12.03
2018-06-12T15:01:00.831Z,12.67
2018-06-12T15:03:28.963Z,12.80
2018-06-12T15:05:57.136Z,13.73
2018-06-12T15:08:25.383Z,13.20
2018-06-12T15:10:53.513Z,14.77
2018-06-12T15:13:21.745Z,13.53
2018-06-12T15:15:49.931Z,13.27
2018-06-12T15:18:18.084Z,11.80
2018-06-12T15:20:46.248Z,13.37
2018-06-12T15:23:14.416Z,14.83
2018-06-12T15:25:42.566Z,13.40
2018-06-12T15:30:36.681Z,13.63
2018-06-12T15:33:05.295Z,13.37
2018-06-12T15:35:33.459Z,12.60
2018-06-12T15:38:01.653Z,11.77
2018-06-12T15:40:29.856Z,13.80
2018-06-12T15:42:58.023Z,13.70
2018-06-12T15:45:26.211Z,12.00
2018-06-12T15:47:55.372Z,12.47
2018-06-12T15:50:23.596Z,13.80
2018-06-12T15:52:51.765Z,13.23
2018-06-12T15:55:19.946Z,12.80
2018-06-12T15:57:48.085Z,12.30
2018-06-12T16:00:16.320Z,11.10
2018-06-12T16:02:44.452Z,12.70
2018-06-12T16:05:12.677Z,13.13
2018-06-12T16:07:40.997Z,13.10
2018-06-12T16:10:09.120Z,13.47
2018-06-12T16:12:37.333Z,10.73
2018-06-12T16:15:05.517Z,12.40
2018-06-12T16:17:33.716Z,12.73
2018-06-12T16:20:01.901Z,11.80
2018-06-12T16:22:30.176Z,12.00
2018-06-12T16:24:58.368Z,11.03
2018-06-12T16:27:26.628Z,11.07
2018-06-12T16:29:57.746Z,12.30
2018-06-12T16:32:25.992Z,12.07
2018-06-12T16:34:54.212Z,13.47
2018-06-12T16:37:22.539Z,14.00
2018-06-12T16:39:50.677Z,13.47
2018-06-12T16:42:18.858Z,14.63
2018-06-12T16:44:47.259Z,15.60
2018-06-12T16:47:15.560Z,13.00
2018-06-12T16:49:43.800Z,11.80
2018-06-12T16:52:11.969Z,12.10
2018-06-12T16:54:40.261Z,12.67
2018-06-12T16:57:08.396Z,12.93
2018-06-12T16:59:36.635Z,12.57
2018-06-12T17:02:04.843Z,11.87
2018-06-12T17:04:33.107Z,12.80
2018-06-12T17:07:01.372Z,11.73
2018-06-12T17:09:29.633Z,12.77
2018-06-12T17:11:57.782Z,12.27
2018-06-12T17:14:26.009Z,13.90
2018-06-12T17:16:54.290Z,13.73
2018-06-12T17:19:22.580Z,13.00
2018-06-12T17:21:50.722Z,11.17
2018-06-12T17:24:18.926Z,11.90
2018-06-12T17:26:47.125Z,11.80
2018-06-12T17:29:15.243Z,12.20
2018-06-12T17:31:44.398Z,12.07
2018-06-12T17:34:12.715Z,14.77
2018-06-12T17:36:40.968Z,11.23
2018-06-12T17:39:09.239Z,12.60
2018-06-12T17:41:37.506Z,12.97
2018-06-12T17:44:05.599Z,12.07
2018-06-12T17:46:33.823Z,13.27
2018-06-12T17:49:02.085Z,14.60
2018-06-12T17:51:30.281Z,9.70
2018-06-12T17:53:58.434Z,7.70
2018-06-12T17:56:26.644Z,7.50
2018-06-12T17:58:54.882Z,7.77
2018-06-12T18:01:23.123Z,7.30
2018-06-12T18:03:51.494Z,6.37
2018-06-12T18:06:19.793Z,6.30
2018-06-12T18:08:47.991Z,5.37
2018-06-12T18:11:16.154Z,7.50
2018-06-12T18:13:44.411Z,6.30
2018-06-12T18:16:12.622Z,7.20
2018-06-12T18:18:40.845Z,6.40
2018-06-12T18:21:09.144Z,5.70
2018-06-12T18:23:37.469Z,5.33
2018-06-12T18:26:05.709Z,6.70
2018-06-12T18:28:33.972Z,7.30
2018-06-12T18:31:02.077Z,7.10
2018-06-12T18:33:30.404Z,10.20
2018-06-12T18:35:58.643Z,9.57
2018-06-12T18:38:26.960Z,9.40
2018-06-12T18:40:55.572Z,11.47
2018-06-12T18:43:23.752Z,13.70
2018-06-12T18:45:52.014Z,19.87
2018-06-12T18:48:20.233Z,18.80
2018-06-12T18:50:48.470Z,17.97
2018-06-12T18:53:16.821Z,19.73
2018-06-12T18:55:45.123Z,22.30
2018-06-12T18:58:13.566Z,20.97
2018-06-12T19:00:41.972Z,20.83
2018-06-12T19:03:10.425Z,24.30
2018-06-12T19:05:38.722Z,24.30
2018-06-12T19:08:06.961Z,22.47
2018-06-12T19:10:35.275Z,22.17
2018-06-12T19:13:03.506Z,22.33
2018-06-12T19:15:31.770Z,24.60
2018-06-12T19:18:00.039Z,23.37
2018-06-12T19:20:28.442Z,28.20
2018-06-12T19:22:56.683Z,20.93
2018-06-12T19:25:25.103Z,24.97
2018-06-12T19:27:53.344Z,22.90
2018-06-12T19:30:21.645Z,24.60
2018-06-12T19:32:50.012Z,21.83
2018-06-12T19:35:18.390Z,23.93
2018-06-12T19:37:46.605Z,23.67
2018-06-12T19:40:14.920Z,22.13
2018-06-12T19:42:43.266Z,21.87
2018-06-12T19:45:11.555Z,23.97
2018-06-12T19:47:39.901Z,21.23
2018-06-12T19:50:08.161Z,22.47
2018-06-12T19:52:36.641Z,20.67
2018-06-12T19:55:05.006Z,22.00
2018-06-12T19:57:34.538Z,22.70
2018-06-12T20:00:03.049Z,23.90
2018-06-12T20:02:32.876Z,20.17
2018-06-12T20:05:01.206Z,18.13
2018-06-12T20:07:29.450Z,17.70
2018-06-12T20:09:57.769Z,16.60
2018-06-12T20:12:25.999Z,18.43
2018-06-12T20:14:54.257Z,19.27
2018-06-12T20:17:22.489Z,17.47
2018-06-12T20:19:50.687Z,17.27
2018-06-12T20:22:18.893Z,17.27
2018-06-12T20:24:47.110Z,16.20
2018-06-12T20:27:15.291Z,17.27
2018-06-12T20:29:43.580Z,17.10
2018-06-12T20:32:11.809Z,14.33
2018-06-12T20:34:40.150Z,11.80
2018-06-12T20:37:08.442Z,14.60
2018-06-12T20:39:36.811Z,15.30
2018-06-12T20:42:05.073Z,13.37
2018-06-12T20:44:33.310Z,14.20
2018-06-12T20:47:01.560Z,14.37
2018-06-12T20:49:29.852Z,11.57
2018-06-12T20:51:58.096Z,10.57
2018-06-12T20:54:26.388Z,11.60
2018-06-12T20:56:54.625Z,12.57
2018-06-12T20:59:22.898Z,13.77
2018-06-12T21:01:51.079Z,15.50
2018-06-12T21:04:22.062Z,15.40
2018-06-12T21:06:50.290Z,14.30
2018-06-12T21:09:18.453Z,14.20
2018-06-12T21:11:46.626Z,16.40
2018-06-12T21:14:14.793Z,17.20
2018-06-12T21:16:43.059Z,16.80
2018-06-12T21:19:11.327Z,16.90
2018-06-12T21:21:39.497Z,17.50
2018-06-12T21:24:07.731Z,15.37
2018-06-12T21:26:36.244Z,17.20
2018-06-12T21:29:04.421Z,14.70
2018-06-12T21:31:32.559Z,19.60
2018-06-12T21:34:00.792Z,16.80
2018-06-12T21:36:29.106Z,16.43
2018-06-12T21:38:57.276Z,15.60
2018-06-12T21:41:25.616Z,14.87
2018-06-12T21:43:53.810Z,15.83
2018-06-12T21:46:22.187Z,18.17
2018-06-12T21:48:50.548Z,17.17
2018-06-12T21:51:18.853Z,15.08
2018-06-12T21:53:47.181Z,15.40
2018-06-12T21:56:15.481Z,14.43
2018-06-12T21:58:43.761Z,15.20
2018-06-12T22:01:11.946Z,12.87
2018-06-12T22:03:40.140Z,12.25
2018-06-12T22:06:08.377Z,12.63
2018-06-12T22:08:36.624Z,12.07
2018-06-12T22:11:04.940Z,11.87
2018-06-12T22:13:33.275Z,12.30
2018-06-12T22:16:01.630Z,11.97
2018-06-12T22:18:29.904Z,11.45
2018-06-12T22:20:58.159Z,12.17
2018-06-12T22:23:26.789Z,12.50
2018-06-12T22:25:54.960Z,13.10
2018-06-12T22:28:23.270Z,13.13
2018-06-12T22:30:51.604Z,13.20
2018-06-12T22:33:19.815Z,12.35
2018-06-12T22:35:48.024Z,14.03
2018-06-12T22:38:16.292Z,10.83
2018-06-12T22:40:44.436Z,12.10
2018-06-12T22:43:12.729Z,10.37
2018-06-12T22:45:40.980Z,11.48
2018-06-12T22:48:09.057Z,11.40
2018-06-12T22:50:37.306Z,12.00
2018-06-12T22:53:05.553Z,11.33
2018-06-12T22:55:33.794Z,11.05
2018-06-12T22:58:01.928Z,10.60
2018-06-12T23:00:30.107Z,11.80
2018-06-12T23:02:58.284Z,11.00
2018-06-12T23:05:26.533Z,11.57
2018-06-12T23:07:54.795Z,8.95
2018-06-12T23:10:23.093Z,9.38
2018-06-12T23:12:51.140Z,11.10
2018-06-12T23:15:19.393Z,11.00
2018-06-12T23:17:47.659Z,10.48
2018-06-12T23:20:32.879Z,10.75
2018-06-12T23:23:01.098Z,12.30
2018-06-12T23:25:29.303Z,12.28
2018-06-12T23:27:57.495Z,11.80
2018-06-12T23:30:25.626Z,10.65
2018-06-12T23:32:53.920Z,10.70
2018-06-12T23:35:22.143Z,11.03
2018-06-12T23:37:50.327Z,9.60
2018-06-12T23:40:18.571Z,9.28
2018-06-12T23:42:46.822Z,9.83
2018-06-12T23:45:15.041Z,10.45
2018-06-12T23:47:46.407Z,10.78
2018-06-12T23:50:14.539Z,9.75
2018-06-12T23:52:43.396Z,11.03
2018-06-12T23:55:11.527Z,8.85
2018-06-12T23:57:39.740Z,9.85
